Time;durP1;ratioP1;P1;durP2;ratioP2;P2;SDS_P1;SDS_P2;PMS_P1;PMS_P2;Temp;Humidity;BMP_temperature;BMP_pressure;BME280_temperature;BME280_humidity;BME280_pressure;Samples;Min_cycle;Max_cycle;Signal;HPM_P1;HPM_P2
2021/01/03 00:02:03;;;;;;;56.13;52.47;;;;;;;12.08;41.88;99924.97;4428583;32;33740;-89
2021/01/03 00:04:31;;;;;;;55.72;52.20;;;;;;;11.96;42.28;99923.63;4440976;32;35517;-90
2021/01/03 00:06:59;;;;;;;54.42;51.03;;;;;;;12.31;41.41;99914.56;4443242;32;35418;-90
2021/01/03 00:09:26;;;;;;;56.13;52.40;;;;;;;12.27;41.66;99906.88;4416085;32;35502;-91
2021/01/03 00:11:55;;;;;;;54.85;51.35;;;;;;;12.64;40.72;99913.41;4428240;32;34052;-91
2021/01/03 00:14:23;;;;;;;55.12;51.58;;;;;;;12.25;41.53;99908.72;4425125;32;33833;-90
2021/01/03 00:16:54;;;;;;;54.30;50.78;;;;;;;11.77;42.42;99911.16;4425020;32;34560;-90
2021/01/03 00:19:22;;;;;;;54.85;51.40;;;;;;;12.72;40.26;99919.19;4424717;32;34207;-90
2021/01/03 00:21:50;;;;;;;54.53;51.15;;;;;;;12.81;40.23;99921.47;4424812;32;33987;-91
2021/01/03 00:24:18;;;;;;;54.55;51.03;;;;;;;12.65;40.02;99918.56;4411948;32;35340;-90
2021/01/03 00:26:47;;;;;;;54.13;50.72;;;;;;;12.31;40.83;99922.41;4424372;32;33059;-91
2021/01/03 00:29:18;;;;;;;55.00;51.35;;;;;;;12.52;40.43;99915.56;4411912;32;34660;-90
2021/01/03 00:31:48;;;;;;;54.88;51.53;;;;;;;13.05;39.22;99902.31;4437191;32;34488;-90
2021/01/03 00:34:19;;;;;;;53.22;49.92;;;;;;;12.91;39.01;99895.84;4425255;32;37020;-90
2021/01/03 00:36:47;;;;;;;53.80;50.30;;;;;;;12.74;39.41;99900.81;4424142;32;34473;-90
2021/01/03 00:39:14;;;;;;;54.35;50.95;;;;;;;12.63;39.52;99896.88;4424548;32;34391;-89
2021/01/03 00:41:50;;;;;;;55.78;52.17;;;;;;;12.25;40.38;99906.09;4424478;32;33741;-90
2021/01/03 00:44:33;;;;;;;54.08;50.78;;;;;;;11.95;40.79;99914.94;4414823;32;34191;-90
2021/01/03 00:47:01;;;;;;;54.38;50.92;;;;;;;12.67;39.32;99908.03;4424436;32;34169;-92
2021/01/03 00:49:28;;;;;;;55.30;51.80;;;;;;;13.53;37.43;99903.91;4424163;32;35433;-90
2021/01/03 00:51:56;;;;;;;54.38;50.88;;;;;;;12.66;38.76;99911.59;4424472;32;33356;-91
2021/01/03 00:54:24;;;;;;;53.47;50.17;;;;;;;12.49;39.31;99915.66;4424455;32;35122;-91
2021/01/03 00:56:52;;;;;;;53.60;50.20;;;;;;;12.52;39.13;99907.72;4424394;32;34173;-90
2021/01/03 00:59:19;;;;;;;54.45;51.08;;;;;;;12.30;39.73;99909.41;4423980;32;34229;-90
2021/01/03 01:01:47;;;;;;;54.25;50.88;;;;;;;11.42;41.60;99910.53;4424180;32;34312;-91
2021/01/03 01:04:15;;;;;;;53.75;50.35;;;;;;;12.39;39.49;99898.62;4424153;32;34123;-89
2021/01/03 01:06:44;;;;;;;53.45;50.15;;;;;;;12.29;39.41;99898.09;4411609;32;34873;-90
2021/01/03 01:09:13;;;;;;;53.90;50.38;;;;;;;12.32;39.52;99894.50;4411963;32;34427;-91
2021/01/03 01:11:42;;;;;;;54.83;51.28;;;;;;;11.96;40.15;99889.66;4449210;32;34030;-89
2021/01/03 01:14:10;;;;;;;54.10;50.60;;;;;;;12.19;39.90;99878.41;4434407;32;33842;-89
2021/01/03 01:16:39;;;;;;;54.33;50.92;;;;;;;11.94;40.05;99873.16;4428911;32;33853;-91
2021/01/03 01:19:07;;;;;;;53.10;49.70;;;;;;;12.03;39.98;99883.31;4427762;32;34541;-91
2021/01/03 01:21:34;;;;;;;54.92;51.42;;;;;;;11.60;41.06;99879.53;4413641;32;33868;-89
2021/01/03 01:24:03;;;;;;;54.75;51.10;;;;;;;12.44;38.75;99885.38;4426222;32;34656;-90
2021/01/03 01:26:31;;;;;;;54.28;50.88;;;;;;;12.02;39.79;99892.94;4413499;32;34402;-91
2021/01/03 01:28:58;;;;;;;54.00;50.60;;;;;;;11.72;40.00;99897.38;4431635;32;35622;-91
2021/01/03 01:31:32;;;;;;;55.12;51.60;;;;;;;11.63;40.52;99893.34;4428173;32;35086;-90
2021/01/03 01:33:59;;;;;;;54.47;50.97;;;;;;;10.99;42.08;99898.81;4442406;32;34518;-89
2021/01/03 01:36:27;;;;;;;54.67;51.20;;;;;;;11.92;40.06;99907.16;4455160;32;34851;-89
2021/01/03 01:38:56;;;;;;;53.60;50.20;;;;;;;11.60;40.93;99918.69;4436383;32;35094;-91
2021/01/03 01:41:23;;;;;;;54.05;50.55;;;;;;;11.72;40.71;99920.03;4417167;32;34694;-91
2021/01/03 01:43:51;;;;;;;54.25;50.75;;;;;;;11.17;41.75;99926.94;4429372;32;34393;-91
2021/01/03 01:46:29;;;;;;;54.63;51.25;;;;;;;11.78;40.54;99928.53;4426204;32;35602;-90
2021/01/03 01:48:58;;;;;;;54.80;51.13;;;;;;;11.09;41.91;99925.47;4413460;32;34259;-91
2021/01/03 01:51:28;;;;;;;53.97;50.58;;;;;;;11.22;41.61;99908.56;4426124;32;34014;-91
2021/01/03 01:54:03;;;;;;;54.35;50.97;;;;;;;12.45;38.86;99876.63;4413018;32;35407;-90
2021/01/03 01:56:40;;;;;;;54.78;51.28;;;;;;;12.15;39.06;99866.38;4426185;32;33631;-91
2021/01/03 01:59:45;;;;;;;54.90;51.35;;;;;;;12.28;38.53;99866.78;4413181;32;34436;-91
2021/01/03 02:02:19;;;;;;;54.53;50.92;;;;;;;12.50;38.10;99848.59;4426126;32;34217;-91
2021/01/03 02:05:10;;;;;;;55.12;51.60;;;;;;;11.94;39.62;99852.28;4425854;32;35313;-92
2021/01/03 02:07:49;;;;;;;54.38;51.05;;;;;;;11.62;40.27;99852.47;4425762;32;34392;-90
2021/01/03 02:10:21;;;;;;;54.67;51.10;;;;;;;11.23;41.15;99865.91;4426080;32;34130;-90
2021/01/03 02:13:22;;;;;;;54.30;51.00;;;;;;;12.21;38.94;99878.37;4438846;32;33319;-91
2021/01/03 02:15:54;;;;;;;54.03;50.72;;;;;;;11.72;40.12;99870.44;4424769;32;33058;-91
2021/01/03 02:18:22;;;;;;;54.95;51.40;;;;;;;12.35;38.62;99870.87;4413191;32;34336;-91
2021/01/03 02:21:06;;;;;;;53.70;50.30;;;;;;;11.57;40.28;99862.22;4425850;32;34107;-91
2021/01/03 02:23:56;;;;;;;53.10;49.88;;;;;;;11.93;39.68;99858.41;4425802;32;33577;-91
2021/01/03 02:26:27;;;;;;;54.22;50.92;;;;;;;11.62;40.25;99855.09;4438098;32;35790;-91
2021/01/03 02:28:56;;;;;;;54.50;51.15;;;;;;;12.29;38.70;99850.22;4426029;32;34243;-91
2021/01/03 02:31:29;;;;;;;54.95;51.45;;;;;;;11.91;38.97;99853.22;4413075;32;34409;-91
2021/01/03 02:33:58;;;;;;;55.22;51.72;;;;;;;12.01;39.02;99853.81;4426153;32;34642;-91
2021/01/03 02:36:30;;;;;;;54.58;51.28;;;;;;;11.79;39.38;99851.91;4426025;32;33406;-91
2021/01/03 02:39:24;;;;;;;53.10;49.80;;;;;;;12.00;38.96;99846.88;4425563;32;35268;-91
2021/01/03 02:41:56;;;;;;;53.47;50.17;;;;;;;12.19;38.70;99834.00;4425393;32;34579;-90
2021/01/03 02:44:25;;;;;;;53.47;50.17;;;;;;;12.92;37.00;99820.84;4425636;32;34562;-91
2021/01/03 02:46:54;;;;;;;54.25;50.80;;;;;;;12.07;38.95;99819.63;4412719;32;34520;-91
2021/01/03 02:49:23;;;;;;;54.70;51.20;;;;;;;11.97;39.14;99820.88;4425614;32;33587;-90
2021/01/03 02:51:54;;;;;;;55.03;51.30;;;;;;;11.40;40.51;99826.25;4413692;32;34024;-90
2021/01/03 02:54:22;;;;;;;54.22;50.63;;;;;;;11.36;40.34;99816.81;4412844;32;34157;-90
2021/01/03 02:56:50;;;;;;;54.03;50.58;;;;;;;12.09;38.79;99799.53;4425377;32;34115;-91
2021/01/03 02:59:18;;;;;;;52.97;49.67;;;;;;;11.63;39.58;99799.41;4426146;32;34126;-92
2021/01/03 03:01:46;;;;;;;54.00;50.60;;;;;;;10.98;41.37;99788.47;4412755;32;34326;-90
2021/01/03 03:04:13;;;;;;;54.60;51.17;;;;;;;11.94;39.17;99751.31;4412972;32;35298;-90
2021/01/03 03:06:41;;;;;;;54.92;51.53;;;;;;;11.99;38.82;99766.84;4425280;32;34182;-90
2021/01/03 03:09:09;;;;;;;53.83;50.53;;;;;;;12.40;38.07;99767.06;4425529;32;34431;-90
2021/01/03 03:11:37;;;;;;;54.67;51.17;;;;;;;11.86;38.89;99785.53;4425763;32;33489;-90
2021/01/03 03:14:05;;;;;;;54.33;51.03;;;;;;;11.22;41.07;99787.72;4425769;32;33063;-89
2021/01/03 03:16:33;;;;;;;54.22;50.88;;;;;;;11.48;40.25;99787.69;4412952;32;34536;-91
2021/01/03 03:19:01;;;;;;;55.12;51.60;;;;;;;11.57;40.26;99796.97;4412937;32;35058;-91
2021/01/03 03:21:29;;;;;;;54.08;50.63;;;;;;;11.69;39.98;99788.72;4425909;32;33966;-90
2021/01/03 03:23:57;;;;;;;54.22;50.92;;;;;;;11.71;39.72;99799.09;4412608;32;34987;-90
2021/01/03 03:26:24;;;;;;;53.65;50.20;;;;;;;12.09;39.04;99806.53;4425459;32;34164;-90
2021/01/03 03:28:53;;;;;;;52.80;49.70;;;;;;;11.82;39.23;99812.66;4425672;32;33576;-91
2021/01/03 03:31:26;;;;;;;54.03;50.50;;;;;;;11.91;39.42;99827.13;4425443;32;34200;-91
2021/01/03 03:33:54;;;;;;;53.65;50.35;;;;;;;12.87;37.21;99823.66;4425618;32;33040;-90
2021/01/03 03:36:22;;;;;;;55.10;51.70;;;;;;;12.83;37.38;99811.59;4425254;32;33618;-90
2021/01/03 03:38:50;;;;;;;53.92;50.70;;;;;;;12.87;37.04;99805.34;4412335;32;35501;-90
2021/01/03 03:41:24;;;;;;;53.47;50.08;;;;;;;12.70;37.50;99814.69;4412881;32;33323;-90
2021/01/03 03:43:52;;;;;;;53.33;49.83;;;;;;;12.69;37.69;99805.13;4413062;32;34718;-91
2021/01/03 03:46:21;;;;;;;54.33;51.00;;;;;;;11.93;38.98;99808.81;4425270;32;34084;-91
2021/01/03 03:48:48;;;;;;;54.28;50.85;;;;;;;12.53;37.93;99806.62;4424972;32;34408;-90
2021/01/03 03:51:17;;;;;;;52.97;49.67;;;;;;;13.23;36.46;99791.69;4425560;32;34465;-91
2021/01/03 03:53:47;;;;;;;53.38;50.03;;;;;;;12.67;37.40;99783.44;4425585;32;34398;-90
2021/01/03 03:56:17;;;;;;;;;;;;;;;12.53;37.56;99777.91;4425918;32;34791;-90
2021/01/03 03:58:46;;;;;;;53.40;49.90;;;;;;;12.25;38.40;99786.78;4412928;32;33316;-90
2021/01/03 04:01:13;;;;;;;53.53;50.25;;;;;;;12.06;38.72;99783.12;4412436;32;35859;-90
2021/01/03 04:03:41;;;;;;;52.78;49.53;;;;;;;12.78;37.35;99788.25;4412465;32;33468;-91
2021/01/03 04:06:09;;;;;;;52.80;49.70;;;;;;;12.12;38.61;99790.75;4425300;32;34282;-91
2021/01/03 04:08:37;;;;;;;53.22;49.92;;;;;;;12.00;39.13;99795.50;4412154;32;35281;-90
2021/01/03 04:11:05;;;;;;;54.22;50.85;;;;;;;12.32;38.69;99788.25;4424813;32;34411;-91
2021/01/03 04:13:33;;;;;;;53.20;49.90;;;;;;;11.86;39.65;99779.47;4437818;32;34136;-90
2021/01/03 04:16:00;;;;;;;53.87;50.30;;;;;;;11.73;39.93;99778.19;4424669;32;34622;-91
2021/01/03 04:18:29;;;;;;;54.95;51.55;;;;;;;12.41;38.61;99771.38;4424763;32;35628;-91
2021/01/03 04:20:57;;;;;;;55.70;52.22;;;;;;;12.07;39.23;99774.41;4425378;32;33405;-90
2021/01/03 04:23:25;;;;;;;53.53;50.22;;;;;;;12.09;39.18;99764.75;4412133;32;37121;-90
2021/01/03 04:26:00;;;;;;;52.62;49.33;;;;;;;11.92;39.58;99765.34;4413597;32;34231;-90
2021/01/03 04:28:27;;;;;;;53.92;50.55;;;;;;;11.97;39.56;99753.84;4424521;32;33896;-91
2021/01/03 04:30:55;;;;;;;54.42;51.13;;;;;;;12.11;39.17;99763.78;4424578;32;34576;-89
2021/01/03 04:33:23;;;;;;;53.97;50.50;;;;;;;11.80;40.21;99750.97;4424888;32;32952;-90
2021/01/03 04:35:51;;;;;;;54.00;50.28;;;;;;;12.28;38.90;99744.84;4432531;32;33750;-88
2021/01/03 04:38:19;;;;;;;54.08;50.67;;;;;;;12.12;39.48;99748.97;4428076;32;35290;-89
2021/01/03 04:40:47;;;;;;;52.97;49.65;;;;;;;12.41;38.83;99749.63;4438695;32;35488;-90
2021/01/03 04:43:16;;;;;;;53.67;50.20;;;;;;;12.19;39.32;99750.41;4422549;32;34286;-90
2021/01/03 04:45:45;;;;;;;53.95;50.30;;;;;;;11.90;40.01;99761.91;4435952;32;35065;-90
2021/01/03 04:48:22;;;;;;;53.50;50.20;;;;;;;12.09;39.82;99762.16;4421021;32;35654;-90
2021/01/03 04:50:50;;;;;;;54.33;51.03;;;;;;;12.26;39.52;99757.13;4440659;32;34017;-91
2021/01/03 04:53:39;;;;;;;52.90;49.47;;;;;;;12.25;39.68;99767.66;4437768;32;33906;-90
2021/01/03 04:56:19;;;;;;;53.80;50.45;;;;;;;11.79;41.04;99772.75;4439326;32;33746;-90
2021/01/03 04:58:47;;;;;;;53.78;50.25;;;;;;;11.98;40.75;99771.22;4439476;32;34775;-91
2021/01/03 05:01:43;;;;;;;53.17;49.78;;;;;;;11.97;40.91;99777.34;4438874;32;35378;-90
2021/01/03 05:04:33;;;;;;;53.53;50.10;;;;;;;11.37;42.62;99782.00;4439416;32;33029;-90
2021/01/03 05:07:10;;;;;;;54.03;50.53;;;;;;;12.62;39.72;99777.53;4438969;32;33296;-91
2021/01/03 05:09:39;;;;;;;53.92;50.50;;;;;;;12.13;40.68;99776.78;4426794;32;34830;-91
2021/01/03 05:12:17;;;;;;;53.58;50.28;;;;;;;12.14;40.55;99783.72;4413650;32;34407;-90
2021/01/03 05:15:00;;;;;;;53.53;50.12;;;;;;;11.94;40.86;99777.44;4426520;32;32977;-90
2021/01/03 05:17:28;;;;;;;52.65;49.42;;;;;;;11.92;40.99;99781.00;4426105;32;34474;-90
2021/01/03 05:19:57;;;;;;;54.55;50.92;;;;;;;12.41;39.94;99775.75;4439153;32;34624;-90
2021/01/03 05:22:36;;;;;;;54.92;51.22;;;;;;;12.65;39.21;99780.03;4413723;32;34025;-90
2021/01/03 05:25:07;;;;;;;54.20;50.80;;;;;;;11.72;41.15;99786.94;4413889;32;34086;-92
2021/01/03 05:27:34;;;;;;;53.58;50.17;;;;;;;11.94;40.84;99774.81;4426509;32;33710;-90
2021/01/03 05:30:12;;;;;;;52.78;49.47;;;;;;;12.49;39.58;99778.94;4426648;32;34581;-90
2021/01/03 05:32:40;;;;;;;53.90;50.40;;;;;;;12.04;40.42;99780.56;4426113;32;34479;-90
2021/01/03 05:35:24;;;;;;;54.50;51.13;;;;;;;12.30;39.74;99790.06;4426136;32;34144;-91
2021/01/03 05:37:56;;;;;;;53.47;50.10;;;;;;;11.87;40.68;99796.81;4426911;32;34166;-91
2021/01/03 05:40:37;;;;;;;53.75;50.25;;;;;;;11.97;40.42;99795.63;4426478;32;34757;-90
2021/01/03 05:43:22;;;;;;;52.95;49.55;;;;;;;12.06;40.33;99796.19;4439278;32;33362;-91
2021/01/03 05:46:05;;;;;;;53.92;50.63;;;;;;;12.01;40.45;99797.19;4426178;32;34346;-92
2021/01/03 05:48:44;;;;;;;53.60;50.30;;;;;;;12.52;39.38;99800.56;4426099;32;35893;-91
2021/01/03 05:51:33;;;;;;;53.95;50.45;;;;;;;12.00;40.51;99798.09;4438934;32;34543;-91
2021/01/03 05:54:09;;;;;;;54.58;50.95;;;;;;;12.34;39.41;99803.87;4452976;32;33624;-91
2021/01/03 05:56:43;;;;;;;54.67;51.25;;;;;;;12.43;39.30;99802.66;4427926;32;33639;-91
2021/01/03 05:59:30;;;;;;;53.78;50.35;;;;;;;12.49;39.07;99807.69;4426146;32;34832;-91
2021/01/03 06:02:08;;;;;;;53.63;50.10;;;;;;;11.58;41.05;99809.13;4413637;32;34766;-90
2021/01/03 06:04:37;;;;;;;54.38;50.72;;;;;;;12.11;39.85;99812.53;4424991;32;33964;-91
2021/01/03 06:07:25;;;;;;;54.97;51.33;;;;;;;12.56;39.10;99808.28;4414822;32;33616;-90
2021/01/03 06:09:53;;;;;;;53.30;50.10;;;;;;;12.42;39.20;99795.72;4442195;32;34645;-89
2021/01/03 06:12:25;;;;;;;53.65;50.35;;;;;;;12.19;39.75;99800.06;4442231;32;34089;-88
2021/01/03 06:14:59;;;;;;;54.17;50.50;;;;;;;12.53;39.08;99794.41;4441627;32;35131;-90
2021/01/03 06:17:34;;;;;;;53.40;50.10;;;;;;;12.14;39.75;99795.00;4429989;32;33756;-91
2021/01/03 06:20:06;;;;;;;53.33;50.03;;;;;;;12.04;40.05;99785.81;4442865;32;34199;-91
2021/01/03 06:22:51;;;;;;;55.22;51.63;;;;;;;11.96;40.11;99798.28;4427818;32;34035;-91
2021/01/03 06:25:47;;;;;;;52.83;49.63;;;;;;;12.35;39.26;99793.38;4426289;32;34444;-90
2021/01/03 06:28:21;;;;;;;54.15;50.80;;;;;;;12.42;39.21;99793.13;4425723;32;34181;-90
2021/01/03 06:31:23;;;;;;;53.25;50.05;;;;;;;11.56;41.04;99797.88;4425595;32;35479;-90
2021/01/03 06:34:17;;;;;;;54.58;51.13;;;;;;;10.97;42.72;99798.97;4426092;32;33844;-91
2021/01/03 06:37:08;;;;;;;54.30;50.40;;;;;;;12.21;39.97;99802.63;4425494;32;33890;-91
2021/01/03 06:39:40;;;;;;;55.03;51.33;;;;;;;11.94;40.40;99810.50;4412891;32;34366;-91
2021/01/03 06:42:40;;;;;;;53.90;50.55;;;;;;;11.94;40.41;99813.09;4413327;32;34516;-90
2021/01/03 06:45:24;;;;;;;54.03;50.47;;;;;;;11.59;41.38;99818.66;4438502;32;33870;-90
2021/01/03 06:48:04;;;;;;;55.03;51.50;;;;;;;11.66;41.18;99830.59;4425731;32;34242;-90
2021/01/03 06:50:55;;;;;;;54.70;51.22;;;;;;;11.62;41.39;99828.13;4425781;32;33546;-90
2021/01/03 06:54:03;;;;;;;54.53;51.13;;;;;;;11.75;41.14;99825.97;4419936;32;34029;-90
2021/01/03 06:56:52;;;;;;;53.95;50.55;;;;;;;11.91;40.86;99840.16;4425603;32;33852;-90
2021/01/03 06:59:27;;;;;;;54.55;51.05;;;;;;;11.75;41.11;99833.78;4438427;32;33560;-91
2021/01/03 07:01:54;;;;;;;54.08;50.47;;;;;;;11.24;42.23;99838.94;4425395;32;34053;-90
2021/01/03 07:04:33;;;;;;;54.15;50.60;;;;;;;12.27;40.22;99834.59;4425081;32;34402;-90
2021/01/03 07:07:03;;;;;;;53.83;50.53;;;;;;;12.09;40.57;99840.50;4412959;32;34460;-91
2021/01/03 07:09:31;;;;;;;53.83;50.42;;;;;;;12.21;40.08;99842.66;4425781;32;34005;-92
2021/01/03 07:11:59;;;;;;;53.33;50.03;;;;;;;12.06;40.54;99841.44;4412825;32;33916;-90
2021/01/03 07:14:36;;;;;;;53.83;50.42;;;;;;;12.23;40.27;99840.84;4412900;32;35225;-92
2021/01/03 07:17:15;;;;;;;55.03;51.47;;;;;;;12.24;40.16;99839.06;4425026;32;34622;-90
2021/01/03 07:19:53;;;;;;;55.17;51.55;;;;;;;12.23;40.38;99829.53;4412698;32;34622;-91
2021/01/03 07:22:28;;;;;;;53.72;50.35;;;;;;;12.59;39.64;99837.78;4425466;32;32458;-90
2021/01/03 07:25:19;;;;;;;54.97;51.33;;;;;;;11.03;43.30;99843.94;4415333;32;34285;-91
2021/01/03 07:28:05;;;;;;;54.67;51.08;;;;;;;11.70;41.79;99837.41;4413123;32;34953;-90
2021/01/03 07:30:48;;;;;;;54.08;50.67;;;;;;;12.52;40.11;99836.28;4438154;32;34573;-92
2021/01/03 07:33:22;;;;;;;54.75;51.17;;;;;;;12.34;40.29;99843.06;4438246;32;33221;-91
2021/01/03 07:35:49;;;;;;;54.13;50.72;;;;;;;11.87;41.57;99846.41;4425797;32;33684;-90
2021/01/03 07:38:26;;;;;;;54.75;51.03;;;;;;;12.46;40.51;99847.00;4425973;32;34164;-91
2021/01/03 07:41:15;;;;;;;53.55;50.25;;;;;;;12.41;40.41;99843.69;4425461;32;34766;-91
2021/01/03 07:43:54;;;;;;;54.70;51.30;;;;;;;12.31;40.82;99851.88;4426082;32;34571;-91
2021/01/03 07:46:43;;;;;;;54.35;50.97;;;;;;;12.02;41.61;99856.37;4440835;32;34283;-88
2021/01/03 07:49:29;;;;;;;54.90;51.58;;;;;;;12.65;40.20;99848.00;4467276;32;35331;-89
2021/01/03 07:51:59;;;;;;;54.90;51.40;;;;;;;12.82;39.85;99852.59;4441772;32;33680;-91
2021/01/03 07:54:28;;;;;;;53.80;50.30;;;;;;;12.40;40.86;99842.81;4429379;32;33491;-90
2021/01/03 07:56:56;;;;;;;53.95;50.42;;;;;;;12.32;40.99;99843.09;4414467;32;34660;-90
2021/01/03 07:59:24;;;;;;;53.78;50.47;;;;;;;12.09;41.51;99853.56;4412596;32;36120;-92
2021/01/03 08:01:53;;;;;;;54.70;51.03;;;;;;;12.10;41.80;99860.44;4437883;32;33659;-91
2021/01/03 08:04:27;;;;;;;55.12;51.55;;;;;;;12.79;40.27;99852.72;4415324;32;35179;-89
2021/01/03 08:07:23;;;;;;;55.38;51.92;;;;;;;12.75;40.28;99858.09;4432887;32;34149;-91
2021/01/03 08:09:51;;;;;;;54.03;50.65;;;;;;;13.03;39.75;99852.69;4418784;32;34428;-92
2021/01/03 08:12:33;;;;;;;54.53;50.95;;;;;;;13.46;38.94;99842.28;4429743;32;35028;-91
2021/01/03 08:15:10;;;;;;;54.53;51.15;;;;;;;13.27;39.08;99845.59;4426331;32;33179;-91
2021/01/03 08:17:42;;;;;;;54.97;51.17;;;;;;;13.37;39.11;99846.09;4412279;32;35598;-91
2021/01/03 08:20:20;;;;;;;53.92;50.42;;;;;;;12.82;40.09;99852.59;4425072;32;33848;-91
2021/01/03 08:22:48;;;;;;;55.42;52.00;;;;;;;12.74;40.26;99859.00;4425100;32;33348;-91
2021/01/03 08:25:24;;;;;;;54.72;51.22;;;;;;;12.17;41.67;99861.97;4399813;32;35044;-91
2021/01/03 08:28:07;;;;;;;55.92;52.33;;;;;;;12.08;41.64;99862.28;4412620;32;34499;-91
2021/01/03 08:30:37;;;;;;;54.65;51.05;;;;;;;12.32;41.54;99868.38;4426521;32;35640;-91
2021/01/03 08:33:17;;;;;;;54.22;50.80;;;;;;;12.57;41.28;99870.94;4413753;32;34448;-91
2021/01/03 08:35:45;;;;;;;55.35;51.45;;;;;;;12.66;40.85;99875.84;4426823;32;34484;-90
2021/01/03 08:38:13;;;;;;;54.15;50.65;;;;;;;12.47;41.20;99878.28;4413702;32;34271;-91
2021/01/03 08:40:43;;;;;;;54.42;50.85;;;;;;;12.93;39.87;99873.09;4413975;32;34542;-91
2021/01/03 08:43:17;;;;;;;55.15;51.47;;;;;;;13.09;39.96;99875.12;4426392;32;33901;-92
2021/01/03 08:45:46;;;;;;;53.95;50.47;;;;;;;12.76;40.14;99872.88;4426430;32;33957;-91
2021/01/03 08:48:22;;;;;;;54.35;50.70;;;;;;;13.12;39.57;99877.59;4413964;32;35680;-91
2021/01/03 08:51:10;;;;;;;54.00;50.60;;;;;;;12.35;41.31;99886.56;4425946;32;35713;-91
2021/01/03 08:53:39;;;;;;;52.97;49.67;;;;;;;13.25;39.33;99884.03;4413656;32;34713;-92
2021/01/03 08:56:28;;;;;;;54.80;51.03;;;;;;;12.56;41.02;99887.53;4426501;32;34184;-91
2021/01/03 08:58:56;;;;;;;54.25;50.80;;;;;;;12.27;41.83;99884.25;4426603;32;34680;-92
2021/01/03 09:01:29;;;;;;;54.47;50.85;;;;;;;12.26;41.99;99890.38;4414224;32;35221;-90
2021/01/03 09:04:03;;;;;;;55.50;51.63;;;;;;;12.06;42.47;99879.75;4426754;32;34077;-91
2021/01/03 09:06:31;;;;;;;55.22;51.55;;;;;;;12.83;40.87;99875.22;4413842;32;34084;-91
2021/01/03 09:09:17;;;;;;;55.35;51.72;;;;;;;13.09;40.21;99877.72;4426361;32;34623;-90
2021/01/03 09:11:53;;;;;;;54.97;51.25;;;;;;;13.03;40.53;99884.91;4426522;32;32943;-90
2021/01/03 09:14:26;;;;;;;55.05;51.37;;;;;;;12.69;41.39;99888.78;4426472;32;34590;-91
2021/01/03 09:17:06;;;;;;;55.97;52.13;;;;;;;13.56;39.57;99882.88;4432393;32;35104;-91
2021/01/03 09:19:50;;;;;;;54.47;50.95;;;;;;;13.38;39.56;99875.75;4440268;32;34371;-90
2021/01/03 09:22:25;;;;;;;55.35;51.53;;;;;;;13.91;38.83;99874.44;4467164;32;36637;-90
2021/01/03 09:25:04;;;;;;;56.03;52.35;;;;;;;14.16;38.08;99879.44;4450087;32;34244;-92
2021/01/03 09:27:33;;;;;;;56.10;52.30;;;;;;;13.25;40.59;99876.19;4442586;32;34087;-91
2021/01/03 09:30:13;;;;;;;56.65;52.70;;;;;;;12.91;41.74;99869.69;4430027;32;35003;-90
2021/01/03 09:32:42;;;;;;;56.10;52.47;;;;;;;13.50;40.42;99865.63;4429775;32;34070;-90
2021/01/03 09:35:46;;;;;;;54.92;51.50;;;;;;;13.61;40.28;99866.94;4426560;32;34434;-90
2021/01/03 09:38:50;;;;;;;54.80;51.30;;;;;;;12.98;41.98;99873.75;4413191;32;32284;-91
2021/01/03 09:41:28;;;;;;;54.50;51.00;;;;;;;12.67;42.55;99877.56;4426640;32;33424;-91
2021/01/03 09:43:55;;;;;;;55.35;51.40;;;;;;;13.42;41.09;99865.09;4413547;32;34161;-89
2021/01/03 09:46:33;;;;;;;55.45;51.83;;;;;;;12.65;42.72;99868.91;4426058;32;34104;-90
2021/01/03 09:49:19;;;;;;;54.13;50.53;;;;;;;12.97;42.01;99858.97;4425775;32;34287;-91
2021/01/03 09:51:56;;;;;;;55.58;51.80;;;;;;;12.94;42.19;99866.94;4413698;32;34616;-91
2021/01/03 09:54:33;;;;;;;55.60;51.70;;;;;;;13.18;41.72;99854.66;4413468;32;34348;-91
2021/01/03 09:57:03;;;;;;;54.80;51.10;;;;;;;13.65;40.86;99861.53;4426252;32;35304;-91
2021/01/03 09:59:31;;;;;;;54.55;50.80;;;;;;;13.43;41.37;99864.19;4425730;32;34044;-90
2021/01/03 10:02:17;;;;;;;55.72;51.92;;;;;;;13.79;40.68;99862.72;4413529;32;36012;-90
2021/01/03 10:04:45;;;;;;;55.50;51.90;;;;;;;13.42;41.84;99857.25;4413407;32;34715;-91
2021/01/03 10:07:26;;;;;;;55.85;52.25;;;;;;;13.22;42.12;99865.03;4413382;32;34342;-91
2021/01/03 10:09:59;;;;;;;;;;;;;;;14.00;40.75;99861.78;4426610;32;33309;-91
2021/01/03 10:12:41;;;;;;;55.83;52.25;;;;;;;13.94;40.85;99853.34;4426055;32;33045;-92
2021/01/03 10:15:11;;;;;;;55.38;51.70;;;;;;;13.96;41.04;99851.50;4425739;32;34553;-91
2021/01/03 10:17:41;;;;;;;55.63;52.00;;;;;;;14.06;40.67;99850.19;4438586;32;34410;-91
2021/01/03 10:20:30;;;;;;;;;;;;;;;14.05;40.56;99851.09;4426249;32;34125;-91
2021/01/03 10:22:57;;;;;;;55.58;51.78;;;;;;;14.31;39.95;99855.19;4415503;32;34106;-90
2021/01/03 10:25:25;;;;;;;55.83;52.03;;;;;;;14.07;40.84;99851.06;4413127;32;34338;-92
2021/01/03 10:28:14;;;;;;;55.25;51.80;;;;;;;14.32;40.39;99849.06;4425907;32;33414;-91
2021/01/03 10:30:43;;;;;;;56.40;52.62;;;;;;;15.11;38.88;99845.44;4426373;32;32693;-91
2021/01/03 10:33:12;;;;;;;54.83;51.35;;;;;;;14.83;39.64;99840.66;4412966;32;34566;-90
2021/01/03 10:35:39;;;;;;;55.55;52.00;;;;;;;13.70;42.02;99841.22;4413217;32;34460;-91
2021/01/03 10:38:08;;;;;;;55.35;51.75;;;;;;;14.00;41.51;99838.22;4425864;32;33204;-90
2021/01/03 10:40:36;;;;;;;56.37;52.62;;;;;;;14.11;41.33;99829.88;4425852;32;34154;-91
2021/01/03 10:43:04;;;;;;;54.67;51.15;;;;;;;14.15;41.15;99838.47;4425789;32;34139;-91
2021/01/03 10:45:33;;;;;;;54.78;51.33;;;;;;;14.08;41.48;99835.28;4413141;32;34421;-91
2021/01/03 10:48:01;;;;;;;55.70;51.97;;;;;;;14.21;41.10;99830.31;4413096;32;35356;-91
2021/01/03 10:50:29;;;;;;;56.85;52.85;;;;;;;14.04;41.40;99828.47;4424894;32;35163;-91
2021/01/03 10:52:57;;;;;;;56.80;52.78;;;;;;;14.81;39.82;99813.66;4412776;32;34422;-91
2021/01/03 10:55:24;;;;;;;55.63;51.95;;;;;;;14.42;40.59;99806.69;4414063;32;34623;-91
2021/01/03 10:57:54;;;;;;;57.33;53.53;;;;;;;14.36;41.06;99810.47;4441738;32;33963;-89
2021/01/03 11:00:22;;;;;;;56.72;52.92;;;;;;;13.33;43.42;99821.78;4442203;32;35391;-89
2021/01/03 11:02:51;;;;;;;57.67;53.80;;;;;;;14.37;41.26;99820.00;4429361;32;35017;-89
2021/01/03 11:05:18;;;;;;;57.10;53.30;;;;;;;14.07;41.82;99819.63;4432711;32;35387;-91
2021/01/03 11:07:47;;;;;;;56.20;52.38;;;;;;;14.42;41.05;99819.81;4429014;32;33910;-91
2021/01/03 11:10:14;;;;;;;56.35;52.75;;;;;;;14.85;40.21;99823.94;4429304;32;33267;-91
2021/01/03 11:12:42;;;;;;;55.92;52.25;;;;;;;14.34;41.18;99818.37;4413204;32;34412;-91
2021/01/03 11:15:13;;;;;;;56.47;52.65;;;;;;;14.85;40.27;99817.81;4413549;32;35447;-92
2021/01/03 11:17:53;;;;;;;56.95;52.95;;;;;;;14.96;39.85;99810.31;4426760;32;35223;-91
2021/01/03 11:20:22;;;;;;;55.10;51.58;;;;;;;15.36;38.98;99802.25;4425531;32;35374;-92
2021/01/03 11:22:50;;;;;;;56.72;53.03;;;;;;;14.31;41.29;99807.19;4425658;32;34404;-91
2021/01/03 11:25:18;;;;;;;56.55;52.72;;;;;;;14.93;39.98;99799.97;4412659;32;34264;-90
2021/01/03 11:27:46;;;;;;;58.50;54.50;;;;;;;15.32;39.29;99806.81;4412907;32;34410;-91
2021/01/03 11:30:14;;;;;;;56.65;52.95;;;;;;;15.04;40.03;99802.06;4412483;32;33791;-91
2021/01/03 11:32:43;;;;;;;56.63;52.95;;;;;;;13.85;42.77;99802.22;4425219;32;34516;-90
2021/01/03 11:35:12;;;;;;;57.35;53.58;;;;;;;15.32;39.71;99803.34;4425717;32;34813;-91
2021/01/03 11:37:41;;;;;;;56.45;52.58;;;;;;;14.60;41.51;99792.75;4412424;32;33845;-90
2021/01/03 11:40:09;;;;;;;56.58;52.70;;;;;;;14.52;41.84;99795.72;4412732;32;32454;-89
2021/01/03 11:42:39;;;;;;;56.35;52.70;;;;;;;14.83;41.06;99796.91;4412458;32;34446;-92
2021/01/03 11:45:12;;;;;;;57.50;53.72;;;;;;;15.15;40.60;99801.53;4425599;32;34667;-90
2021/01/03 11:47:41;;;;;;;57.13;53.22;;;;;;;15.06;40.78;99794.13;4425365;32;35192;-91